Huvudsida
METAR-TAF:

METAR-TAF

Flygplatser :

Guangzhou Baiyun International Airport

Guangzhou, Kina

latitud: 23-10N, longitud: 113-20E, höjd: 8 m

Aktuellt väderrapport

Denna rapport gjordes för 34 minuter sedan, klockan 07:30 UTC
Vind 8 kt från nord/nordväst, varierande mellan nordväst och nord
Temperatur 24°C
Fuktighet 65%
Tryck 1016 hPa
Sikt 10 km eller mer
Inga moln under 1 500 m eller inga cumulonimbus

METAR: ZGGG 230730Z 34004MPS 310V010 CAVOK 24/17 Q1016 NOSIG

Tid: 16:04 (08:04 UTC)

Väderprognos

Denna rapport gjordes för 5 timmar och 3 minuter sedan, klockan 03:01 UTC
Prognos gäller från 23 kl. 06 UTC till 24 kl. 06 UTC
Vind 8 kt från nord/nordost
Sikt: 8000 m
Brutna moln på en höjd av 3300 ft

TAF: ZGGG 230301Z 2306/2406 02004MPS 8000 BKN033 TX25/2307Z TN21/2322Z

Aktuella väderrapporter och prognoser från 4000 flygplatser (METAR- och TAF-rapporter).

De tillgängliga stationerna syns som gula och röda prickar på kartan.

För musen över prickarna för att se namnen på stationerna.

Klicka sedan för att få väderrapporter och prognoser.

För att ändra kartan: Klicka på de gröna knapparna med ett svart kors på för att zooma in; den gröna knappen med ett streck på för att zooma ut; eller på de gröna pilarna för angränsande kartor.


METAR-TAF: